createdAt,value
2023-03-23T15:59:57.975Z,100819.31
2023-03-23T16:03:04.421Z,100828.16
2023-03-23T16:05:51.976Z,100813.16
2023-03-23T16:08:32.607Z,100821.97
2023-03-23T16:11:00.329Z,100830.91
2023-03-23T16:13:48.039Z,100799.09
2023-03-23T16:16:33.364Z,100831.75
2023-03-23T16:19:22.988Z,100826.44
2023-03-23T16:22:03.629Z,100836.16
2023-03-23T16:24:30.648Z,100809.66
2023-03-23T16:26:57.592Z,100813.22
2023-03-23T16:29:46.815Z,100782.28
2023-03-23T16:32:11.631Z,100786.69
2023-03-23T16:35:11.996Z,100823.81
2023-03-23T16:38:12.986Z,100841.47
2023-03-23T16:40:53.552Z,100802.59
2023-03-23T16:43:21.359Z,100798.19
2023-03-23T16:45:48.958Z,100847.69
2023-03-23T16:48:16.909Z,100828.22
2023-03-23T16:51:05.011Z,100826.47
2023-03-23T16:54:05.985Z,100846.75
2023-03-23T16:56:48.259Z,100847.63
2023-03-23T16:59:15.616Z,100828.16
2023-03-23T17:02:10.005Z,100814.88
2023-03-23T17:05:11.000Z,100865.19
2023-03-23T17:07:52.503Z,100870.47
2023-03-23T17:10:19.578Z,100804.94
2023-03-23T17:12:46.740Z,100856.19
2023-03-23T17:15:34.061Z,100849.06
2023-03-23T17:18:36.049Z,100820.75
2023-03-23T17:21:23.554Z,100871.88
2023-03-23T17:23:50.697Z,100846.22
2023-03-23T17:26:17.730Z,100863.00
2023-03-23T17:28:44.726Z,100829.19
2023-03-23T17:31:11.958Z,100871.56
2023-03-23T17:33:39.115Z,100820.19
2023-03-23T17:36:26.079Z,100868.69
2023-03-23T17:39:06.891Z,100857.84
2023-03-23T17:41:38.031Z,100846.28
2023-03-23T17:44:05.124Z,100808.63
2023-03-23T17:46:32.096Z,100906.16
2023-03-23T17:49:00.975Z,100799.69
2023-03-23T17:51:48.044Z,100876.63
2023-03-23T17:54:31.099Z,100864.16
2023-03-23T17:56:58.995Z,100914.47
2023-03-23T17:59:26.234Z,100886.97
2023-03-23T18:01:53.697Z,100914.16
2023-03-23T18:04:22.444Z,100925.53
2023-03-23T18:07:10.103Z,100901.59
2023-03-23T18:10:19.023Z,100927.97
2023-03-23T18:13:21.048Z,100928.63
2023-03-23T18:16:08.271Z,100909.84
2023-03-23T18:18:55.043Z,100940.72
2023-03-23T18:21:35.941Z,100949.34
2023-03-23T18:24:03.832Z,100940.56
2023-03-23T18:26:35.210Z,100937.81
2023-03-23T18:29:02.408Z,100865.88
2023-03-23T18:31:30.060Z,100955.53
2023-03-23T18:34:17.092Z,100951.81
2023-03-23T18:36:57.600Z,100947.28
2023-03-23T18:39:24.534Z,100947.16
2023-03-23T18:41:51.453Z,100942.44
2023-03-23T18:44:18.493Z,100921.00
2023-03-23T18:46:45.545Z,100954.63
2023-03-23T18:49:12.460Z,100983.81
2023-03-23T18:51:59.063Z,100987.25
2023-03-23T18:54:40.544Z,100988.09
2023-03-23T18:57:07.663Z,100920.56
2023-03-23T18:59:36.027Z,100961.97
2023-03-23T19:02:25.300Z,100973.44
2023-03-23T19:05:26.095Z,100992.78
2023-03-23T19:08:09.800Z,100948.34
2023-03-23T19:10:38.630Z,100996.03
2023-03-23T19:13:26.120Z,100963.88
2023-03-23T19:16:27.082Z,100997.50
2023-03-23T19:19:21.108Z,100978.91
2023-03-23T19:22:22.130Z,100968.00
2023-03-23T19:25:04.213Z,100976.06
2023-03-23T19:27:31.432Z,100907.78
2023-03-23T19:29:59.751Z,100992.75
2023-03-23T19:32:48.186Z,101002.38
2023-03-23T19:35:49.538Z,101009.19
2023-03-23T19:38:29.689Z,100995.75
2023-03-23T19:41:19.077Z,100998.88
2023-03-23T19:44:21.143Z,100973.91
2023-03-23T19:47:22.403Z,101005.72
2023-03-23T19:50:02.731Z,100971.06
2023-03-23T19:53:04.584Z,101010.13
2023-03-23T19:56:05.245Z,101000.94
2023-03-23T19:59:06.141Z,100973.13
2023-03-23T20:01:47.078Z,101014.13
2023-03-23T20:04:14.141Z,101024.88
2023-03-23T20:06:41.160Z,100996.84
2023-03-23T20:09:28.533Z,100991.00
2023-03-23T20:12:09.640Z,101006.44
2023-03-23T20:14:57.181Z,101036.31
2023-03-23T20:17:58.410Z,101043.16
2023-03-23T20:21:00.306Z,101015.56
2023-03-23T20:24:01.119Z,101021.84
2023-03-23T20:26:44.905Z,101041.25
2023-03-23T20:29:32.167Z,101052.63
2023-03-23T20:32:12.791Z,101061.25
2023-03-23T20:34:39.738Z,101050.41
2023-03-23T20:37:07.598Z,101026.38
2023-03-23T20:39:55.158Z,101081.22
2023-03-23T20:42:56.162Z,101020.97
2023-03-23T20:45:57.198Z,101079.47
2023-03-23T20:48:40.020Z,101069.44
2023-03-23T20:51:28.155Z,101077.94
2023-03-23T20:54:31.134Z,101064.66
2023-03-23T20:57:35.150Z,101058.56
2023-03-23T21:00:17.955Z,101062.09
2023-03-23T21:02:44.923Z,101073.88
2023-03-23T21:05:11.954Z,101061.84
2023-03-23T21:07:59.237Z,101040.50
2023-03-23T21:10:40.188Z,101089.06
2023-03-23T21:13:28.171Z,101068.22
2023-03-23T21:16:11.094Z,101088.00
2023-03-23T21:18:58.163Z,101070.78
2023-03-23T21:21:59.201Z,101039.66
2023-03-23T21:24:40.438Z,101048.63
2023-03-23T21:27:07.576Z,101101.03
2023-03-23T21:29:34.766Z,101033.56
2023-03-23T21:32:08.335Z,101056.47
2023-03-23T21:34:37.170Z,101044.88
2023-03-23T21:37:04.319Z,101069.34
2023-03-23T21:39:31.706Z,101099.47
2023-03-23T21:41:59.667Z,101105.03
2023-03-23T21:44:26.866Z,101085.63
2023-03-23T21:46:54.634Z,101082.50
2023-03-23T21:49:42.196Z,101101.28
2023-03-23T21:52:43.165Z,101075.06
2023-03-23T21:55:45.197Z,101094.09
2023-03-23T21:58:14.050Z,101042.38
2023-03-23T22:01:01.262Z,101096.66
2023-03-23T22:03:42.435Z,101054.25
2023-03-23T22:06:35.182Z,101099.69
2023-03-23T22:09:15.876Z,101094.25
2023-03-23T22:11:43.401Z,101077.88
2023-03-23T22:14:31.179Z,101016.72
2023-03-23T22:17:12.257Z,101068.19
2023-03-23T22:19:59.183Z,101077.09
2023-03-23T22:22:40.078Z,101101.84
2023-03-23T22:25:07.165Z,101062.56
2023-03-23T22:27:34.332Z,101104.00
2023-03-23T22:30:01.268Z,101051.69
2023-03-23T22:32:28.279Z,101076.72
2023-03-23T22:34:55.339Z,101081.97
2023-03-23T22:37:22.358Z,101083.44
2023-03-23T22:40:09.200Z,101095.09
2023-03-23T22:43:10.222Z,101077.66
2023-03-23T22:46:11.201Z,101068.09
2023-03-23T22:48:51.940Z,101095.00
2023-03-23T22:51:43.200Z,101029.22
2023-03-23T22:54:23.809Z,101087.88
2023-03-23T22:56:50.957Z,101053.31
2023-03-23T22:59:19.475Z,101076.50
2023-03-23T23:01:46.494Z,101062.38
2023-03-23T23:04:13.679Z,100985.50
2023-03-23T23:06:40.703Z,101056.56
2023-03-23T23:09:08.003Z,101042.47
2023-03-23T23:11:35.003Z,101091.03
2023-03-23T23:14:22.331Z,101024.25
2023-03-23T23:17:02.842Z,101080.53
2023-03-23T23:19:50.323Z,101081.47
2023-03-23T23:22:31.392Z,101068.34
2023-03-23T23:24:58.335Z,101091.38
2023-03-23T23:27:26.936Z,101086.31
2023-03-23T23:29:54.004Z,101051.38
2023-03-23T23:32:21.140Z,100996.56
2023-03-23T23:34:48.558Z,101049.91
2023-03-23T23:37:15.885Z,101066.91
2023-03-23T23:39:43.014Z,101041.78
2023-03-23T23:42:10.291Z,101092.72
2023-03-23T23:44:38.442Z,101037.81
2023-03-23T23:47:06.126Z,101038.69
2023-03-23T23:49:34.360Z,100983.19
2023-03-23T23:52:22.818Z,101084.59
2023-03-23T23:55:25.254Z,101076.91
2023-03-23T23:58:05.854Z,101054.78
